KG-0028 weather

CLOSED Kara Baita Airport
Kara Baita, Chuy Region, Kyrgyzstan

Public forecast

Using degrees Celsius for public forecast. Weather courtesy of forecast.io.

Closest aviation weather report (METAR) to Kara Baita Airport

Closest report is Manas International Airport, 29.5 nm (54.6 km) ENE. Retrieved 2020/04/02 08:30 UTC (10 minutes ago):

UCFM 020830Z 16002MPS 110V200 9999 BKN066CB 12/06 Q1022 R26/2///95 NOSIG

Closest aviation forecast (TAF) to Kara Baita Airport

Closest forecast is Manas International Airport, 29.5 nm (54.6 km) ENE. Retrieved 2020/04/02 06:00 UTC (3 hours ago):

TAF UCFM 020448Z 0206/0306 24003G08MPS 9999 BKN040CB TEMPO 0206/0212 29003G08MPS 2000 SHRA BR FEW003 BKN015CB PROB40 TEMPO 0206/0212 TS BECMG 0218/0220 12003G08MPS 3000 BR